Time;durP1;ratioP1;P1;durP2;ratioP2;P2;SDS_P1;SDS_P2;PMS_P1;PMS_P2;Temp;Humidity;BMP_temperature;BMP_pressure;BME280_temperature;BME280_humidity;BME280_pressure;Samples;Min_cycle;Max_cycle;Signal;HPM_P1;HPM_P2
2021/12/04 00:00:54;;;;;;;;;15.75;15.00;;;;;4.75;100.00;99863.06;5069816;28;11192;-68
2021/12/04 00:03:21;;;;;;;;;20.50;19.00;;;;;4.76;100.00;99866.59;5069318;28;11296;-68
2021/12/04 00:05:52;;;;;;;;;17.50;15.50;;;;;4.76;100.00;99869.25;5062246;28;11493;-68
2021/12/04 00:08:19;;;;;;;;;16.00;16.00;;;;;4.73;100.00;99869.63;5068194;28;11271;-68
2021/12/04 00:10:47;;;;;;;;;25.75;20.75;;;;;4.74;100.00;99874.81;5059926;28;11456;-70
2021/12/04 00:13:13;;;;;;;;;20.50;17.75;;;;;4.69;100.00;99869.09;5069275;28;11550;-68
2021/12/04 00:15:40;;;;;;;;;19.00;18.00;;;;;4.75;100.00;99864.91;5069403;28;11285;-68
2021/12/04 00:18:06;;;;;;;;;21.00;19.50;;;;;4.73;100.00;99857.03;5068544;28;11538;-68
2021/12/04 00:20:34;;;;;;;;;18.75;17.00;;;;;4.75;100.00;99852.34;5064850;28;12318;-69
2021/12/04 00:23:00;;;;;;;;;21.75;17.75;;;;;4.76;100.00;99855.84;5053516;28;11456;-68
2021/12/04 00:25:29;;;;;;;;;24.00;19.25;;;;;4.80;100.00;99851.81;5063379;28;11485;-68
2021/12/04 00:27:56;;;;;;;;;29.25;23.50;;;;;4.77;100.00;99850.31;5063388;28;11503;-69
2021/12/04 00:30:23;;;;;;;;;21.75;21.00;;;;;4.79;100.00;99847.47;5055195;28;11559;-68
2021/12/04 00:32:59;;;;;;;;;23.50;20.25;;;;;4.84;100.00;99845.91;5069154;28;11494;-68
2021/12/04 00:51:37;;;;;;;;;26.50;24.75;;;;;4.76;100.00;99843.28;5071993;28;12188;-68
2021/12/04 00:54:05;;;;;;;;;29.25;23.25;;;;;4.76;100.00;99842.44;5071734;28;11507;-69
2021/12/04 00:56:34;;;;;;;;;23.25;21.00;;;;;4.75;100.00;99830.88;5052378;28;11620;-69
2021/12/04 00:59:01;;;;;;;;;21.50;21.25;;;;;4.76;100.00;99827.19;5050722;28;11516;-69
2021/12/04 01:01:27;;;;;;;;;20.00;15.25;;;;;4.80;100.00;99822.31;5072175;28;11510;-68
2021/12/04 01:03:54;;;;;;;;;22.50;18.25;;;;;4.79;100.00;99815.28;5070905;28;11318;-68
2021/12/04 01:06:21;;;;;;;;;19.75;17.00;;;;;4.79;100.00;99816.13;5063754;28;11517;-69
2021/12/04 01:08:48;;;;;;;;;29.00;22.00;;;;;4.80;100.00;99814.28;5054064;28;11508;-70
2021/12/04 01:11:14;;;;;;;;;20.75;20.75;;;;;4.79;100.00;99812.59;5057562;28;11477;-69
2021/12/04 01:13:41;;;;;;;;;30.00;27.25;;;;;4.77;100.00;99818.16;5057187;28;11619;-72
2021/12/04 01:16:10;;;;;;;;;23.75;17.75;;;;;4.78;100.00;99822.50;5056076;28;11512;-71
2021/12/04 01:18:38;;;;;;;;;27.00;22.25;;;;;4.77;100.00;99820.81;5060047;28;11501;-70
2021/12/04 01:21:04;;;;;;;;;31.25;26.75;;;;;4.76;100.00;99812.97;5061042;28;11496;-70
2021/12/04 01:23:31;;;;;;;;;18.25;18.00;;;;;4.79;100.00;99804.56;5058739;28;11561;-71
2021/12/04 01:25:58;;;;;;;;;20.50;20.50;;;;;4.79;100.00;99793.84;5060833;28;11559;-69
2021/12/04 01:28:24;;;;;;;;;26.25;20.00;;;;;4.78;100.00;99782.28;5057328;28;11533;-69
2021/12/04 01:30:51;;;;;;;;;31.25;26.25;;;;;4.76;100.00;99781.63;5064288;28;11502;-70
2021/12/04 01:33:18;;;;;;;;;32.25;31.25;;;;;4.77;100.00;99783.28;5062604;28;11650;-69
2021/12/04 01:35:45;;;;;;;;;35.25;31.00;;;;;4.77;100.00;99785.97;5064885;28;11509;-68
2021/12/04 01:38:12;;;;;;;;;29.50;18.50;;;;;4.82;100.00;99796.16;5064684;28;11546;-69
2021/12/04 01:40:38;;;;;;;;;29.50;20.25;;;;;4.82;100.00;99794.31;5059961;28;11637;-69
2021/12/04 01:43:07;;;;;;;;;36.00;27.75;;;;;4.82;100.00;99791.63;5056815;28;11498;-68
2021/12/04 01:45:34;;;;;;;;;24.25;23.25;;;;;4.83;100.00;99795.13;5054574;28;11522;-70
2021/12/04 01:48:01;;;;;;;;;26.00;25.50;;;;;4.81;100.00;99795.31;5055289;28;11581;-69
2021/12/04 01:50:30;;;;;;;;;30.00;24.75;;;;;4.80;100.00;99796.34;5056114;28;12402;-71
2021/12/04 01:52:58;;;;;;;;;33.00;27.50;;;;;4.82;100.00;99799.66;5056678;28;11548;-70
2021/12/04 01:55:32;;;;;;;;;23.50;17.75;;;;;4.85;100.00;99799.31;5055745;28;11625;-70
2021/12/04 01:58:03;;;;;;;;;25.50;20.75;;;;;4.85;100.00;99801.16;5062056;28;11571;-70
2021/12/04 02:00:33;;;;;;;;;29.50;25.75;;;;;4.84;100.00;99791.44;5063425;28;11509;-71
2021/12/04 02:03:03;;;;;;;;;31.50;26.00;;;;;4.82;100.00;99788.94;5057476;28;11533;-71
2021/12/04 02:05:33;;;;;;;;;29.25;25.00;;;;;4.83;100.00;99795.13;5054275;28;11578;-71
2021/12/04 02:08:00;;;;;;;;;30.50;27.00;;;;;4.84;100.00;99799.50;5055607;28;11599;-70
2021/12/04 02:10:26;;;;;;;;;29.25;23.75;;;;;4.83;100.00;99784.41;5055003;28;11649;-70
2021/12/04 02:12:53;;;;;;;;;27.25;27.00;;;;;4.83;100.00;99787.94;5055846;28;11536;-68
2021/12/04 02:15:20;;;;;;;;;27.75;23.50;;;;;4.83;100.00;99789.78;5051949;28;11501;-70
2021/12/04 02:17:48;;;;;;;;;27.50;26.00;;;;;4.83;100.00;99789.78;5053988;28;12268;-70
2021/12/04 02:20:20;;;;;;;;;33.25;26.00;;;;;4.83;100.00;99784.41;5054935;28;11620;-71
2021/12/04 02:22:48;;;;;;;;;33.00;25.00;;;;;4.84;100.00;99784.22;5053284;28;11596;-71
2021/12/04 02:25:16;;;;;;;;;30.00;26.75;;;;;4.84;100.00;99794.13;5058101;28;11581;-68
2021/12/04 02:27:43;;;;;;;;;33.50;27.75;;;;;4.83;100.00;99776.38;5071658;28;11637;-68
2021/12/04 02:30:15;;;;;;;;;22.50;19.50;;;;;4.86;100.00;99773.31;5054000;28;11552;-69
2021/12/04 02:32:41;;;;;;;;;22.00;18.00;;;;;4.86;100.00;99766.13;5053634;28;11503;-68
2021/12/04 02:35:10;;;;;;;;;26.75;25.50;;;;;4.84;100.00;99760.09;5056690;28;11617;-68
2021/12/04 02:37:38;;;;;;;;;34.00;29.75;;;;;4.81;100.00;99762.31;5057555;28;11514;-68
2021/12/04 02:40:08;;;;;;;;;31.50;21.75;;;;;4.85;100.00;99768.97;5055048;28;11707;-69
2021/12/04 02:42:35;;;;;;;;;35.00;27.50;;;;;4.84;100.00;99767.31;5054962;28;12277;-69
2021/12/04 02:45:04;;;;;;;;;29.00;23.00;;;;;4.87;100.00;99764.28;5052519;28;12277;-69
2021/12/04 02:47:31;;;;;;;;;29.50;23.00;;;;;4.88;100.00;99765.94;5053394;28;11523;-70
2021/12/04 02:49:58;;;;;;;;;27.75;24.75;;;;;4.85;100.00;99760.94;5055638;28;12309;-70
2021/12/04 02:52:25;;;;;;;;;30.00;26.00;;;;;4.87;100.00;99759.75;5055006;28;11620;-70
2021/12/04 02:54:52;;;;;;;;;23.00;19.00;;;;;4.88;100.00;99750.69;5056656;28;11646;-70
2021/12/04 02:57:21;;;;;;;;;28.25;21.75;;;;;4.91;100.00;99754.84;5056602;28;11545;-69
2021/12/04 02:59:50;;;;;;;;;29.75;25.25;;;;;4.90;100.00;99753.19;5051327;28;11609;-69
2021/12/04 03:04:46;;;;;;;;;20.00;15.25;;;;;4.93;100.00;99750.13;5055193;28;11518;-69
2021/12/04 03:07:14;;;;;;;;;24.50;24.50;;;;;4.92;100.00;99749.31;5057383;28;11582;-70
2021/12/04 03:09:41;;;;;;;;;30.50;26.25;;;;;4.94;100.00;99746.44;5057692;28;11609;-68
2021/12/04 03:12:08;;;;;;;;;35.25;24.25;;;;;4.92;100.00;99745.78;5053145;28;11627;-68
2021/12/04 03:14:35;;;;;;;;;28.00;23.00;;;;;4.92;100.00;99735.91;5051479;28;11611;-69
2021/12/04 03:17:02;;;;;;;;;28.25;22.00;;;;;4.92;100.00;99745.78;5053239;28;11635;-70
2021/12/04 03:19:29;;;;;;;;;24.25;21.75;;;;;4.95;100.00;99742.75;5053243;28;11609;-69
2021/12/04 03:21:56;;;;;;;;;28.25;15.25;;;;;4.92;100.00;99732.38;5055780;28;11540;-68
2021/12/04 03:24:24;;;;;;;;;23.75;21.00;;;;;4.91;100.00;99731.53;5056070;28;11130;-69
2021/12/04 03:26:51;;;;;;;;;27.75;22.75;;;;;4.92;100.00;99727.84;5056814;28;11501;-69
2021/12/04 03:29:22;;;;;;;;;23.00;17.75;;;;;4.93;100.00;99723.31;5050168;28;11540;-70
2021/12/04 03:42:52;;;;;;;;;26.00;19.75;;;;;4.97;100.00;99713.94;5055714;28;11520;-69
2021/12/04 03:45:19;;;;;;;;;27.00;22.75;;;;;4.95;100.00;99702.50;5059359;28;11630;-70
2021/12/04 03:47:49;;;;;;;;;23.75;22.75;;;;;4.94;100.00;99712.41;5055169;28;11644;-70
2021/12/04 03:50:15;;;;;;;;;26.50;22.25;;;;;4.96;100.00;99706.91;5054373;28;11577;-69
2021/12/04 03:52:43;;;;;;;;;30.25;22.75;;;;;4.97;100.00;99705.03;5054546;28;11651;-69
2021/12/04 03:55:10;;;;;;;;;22.75;18.00;;;;;4.96;100.00;99704.22;5062272;28;12344;-69
2021/12/04 03:57:44;;;;;;;;;26.25;21.00;;;;;5.02;100.00;99702.66;5053743;28;12014;-69
2021/12/04 04:00:13;;;;;;;;;22.75;19.25;;;;;5.03;100.00;99704.31;5053623;28;11553;-70
2021/12/04 04:02:39;;;;;;;;;26.25;22.75;;;;;5.06;100.00;99710.16;5054363;28;11497;-68
2021/12/04 04:05:07;;;;;;;;;30.50;27.50;;;;;5.04;100.00;99708.66;5057347;28;11377;-69
2021/12/04 04:07:34;;;;;;;;;25.00;19.75;;;;;5.01;100.00;99703.66;5056945;28;12419;-68
2021/12/04 04:10:00;;;;;;;;;23.50;17.25;;;;;5.05;100.00;99703.13;5053643;28;11626;-69
2021/12/04 04:12:27;;;;;;;;;16.25;12.50;;;;;5.04;100.00;99692.56;5066740;28;11266;-70
2021/12/04 04:14:53;;;;;;;;;28.00;18.00;;;;;5.04;100.00;99696.09;5049722;28;11635;-69
2021/12/04 04:17:20;;;;;;;;;26.25;17.50;;;;;5.07;100.00;99690.34;5055951;28;11272;-70
2021/12/04 04:19:46;;;;;;;;;23.25;22.75;;;;;5.04;100.00;99687.22;5055334;28;11285;-69
2021/12/04 04:22:13;;;;;;;;;24.00;18.50;;;;;5.04;100.00;99687.22;5053952;28;11560;-70
2021/12/04 04:24:39;;;;;;;;;21.25;16.50;;;;;5.02;100.00;99683.88;5054865;28;11673;-69
2021/12/04 04:27:06;;;;;;;;;25.75;20.00;;;;;5.03;100.00;99697.09;5057703;28;12498;-69
2021/12/04 04:29:32;;;;;;;;;15.75;12.25;;;;;5.02;100.00;99683.88;5056880;28;11574;-70
2021/12/04 04:32:00;;;;;;;;;25.25;18.00;;;;;5.04;100.00;99684.53;5057103;28;11272;-69
2021/12/04 05:18:56;;;;;;;;;20.50;19.00;;;;;5.02;100.00;99640.97;5059602;28;11545;-70
2021/12/04 05:21:05;;;;;;;;;21.00;18.50;;;;;4.95;100.00;99647.03;5051767;28;11597;-69
2021/12/04 05:23:45;;;;;;;;;19.75;14.00;;;;;5.00;100.00;99654.56;5056812;28;11506;-69
2021/12/04 05:26:16;;;;;;;;;17.75;15.25;;;;;5.03;100.00;99648.00;5058657;28;11176;-69
2021/12/04 05:28:43;;;;;;;;;28.00;20.50;;;;;5.01;100.00;99642.81;5055642;28;11597;-69
2021/12/04 05:31:10;;;;;;;;;23.75;19.75;;;;;4.98;100.00;99639.66;5055436;28;11620;-69
2021/12/04 05:33:39;;;;;;;;;21.50;15.50;;;;;4.98;100.00;99636.97;5054847;28;11484;-69
2021/12/04 05:36:07;;;;;;;;;23.25;15.50;;;;;4.98;100.00;99634.31;5057866;28;11348;-68
2021/12/04 05:38:34;;;;;;;;;21.00;16.50;;;;;5.01;100.00;99632.09;5059053;28;11789;-69
2021/12/04 05:41:03;;;;;;;;;25.50;13.00;;;;;4.97;100.00;99628.09;5057968;28;11572;-69
2021/12/04 05:43:30;;;;;;;;;22.25;17.50;;;;;4.99;100.00;99626.06;5054079;28;11491;-69
2021/12/04 05:46:08;;;;;;;;;22.00;18.25;;;;;5.01;100.00;99624.03;5061214;28;11538;-68
2021/12/04 05:56:20;;;;;;;;;26.00;20.75;;;;;5.01;100.00;99617.84;5056639;28;11507;-69
2021/12/04 05:58:48;;;;;;;;;30.25;19.75;;;;;5.00;100.00;99614.31;5052836;28;11489;-69
2021/12/04 06:01:16;;;;;;;;;25.50;22.00;;;;;4.98;100.00;99608.31;5054934;28;11509;-69
2021/12/04 06:03:43;;;;;;;;;18.25;15.75;;;;;4.99;100.00;99615.34;5052065;28;11483;-69
2021/12/04 06:06:09;;;;;;;;;23.75;18.50;;;;;5.00;100.00;99619.69;5055314;28;11544;-69
2021/12/04 06:08:36;;;;;;;;;27.00;20.25;;;;;4.98;100.00;99619.03;5054395;28;11552;-69
2021/12/04 06:11:02;;;;;;;;;18.75;18.50;;;;;5.03;100.00;99627.38;5056064;28;11490;-69
2021/12/04 06:13:29;;;;;;;;;25.75;17.00;;;;;5.04;100.00;99625.50;5055611;28;11331;-69
2021/12/04 06:15:55;;;;;;;;;14.75;13.00;;;;;5.07;100.00;99623.28;5060274;28;12327;-69
2021/12/04 06:18:22;;;;;;;;;14.50;13.75;;;;;5.05;100.00;99619.97;5055879;28;12184;-69
2021/12/04 06:23:35;;;;;;;;;22.75;17.25;;;;;5.01;100.00;99620.53;5055313;28;11578;-69
2021/12/04 06:26:05;;;;;;;;;16.00;14.50;;;;;4.99;100.00;99626.06;5066162;28;12083;-69
2021/12/04 06:28:32;;;;;;;;;27.50;23.75;;;;;4.98;100.00;99620.88;5055059;28;11393;-69
2021/12/04 06:31:00;;;;;;;;;24.50;17.00;;;;;5.00;100.00;99621.53;5050925;28;11502;-69
2021/12/04 06:33:27;;;;;;;;;16.00;15.00;;;;;5.02;100.00;99623.03;5051502;28;11302;-69
2021/12/04 06:35:55;;;;;;;;;23.25;20.75;;;;;5.00;100.00;99626.91;5061629;23;12500;-68
2021/12/04 06:38:22;;;;;;;;;20.75;14.00;;;;;4.99;100.00;99615.34;5030752;28;11636;-68
2021/12/04 06:40:49;;;;;;;;;23.75;16.25;;;;;5.01;100.00;99618.66;5031055;28;11939;-69
2021/12/04 06:43:17;;;;;;;;;19.50;16.75;;;;;5.04;100.00;99617.47;5024931;28;11558;-70
2021/12/04 06:45:44;;;;;;;;;18.75;18.25;;;;;5.03;100.00;99611.28;5028841;28;12289;-68
2021/12/04 06:48:21;;;;;;;;;26.75;21.50;;;;;5.02;100.00;99608.78;5026713;28;11510;-71
2021/12/04 06:50:54;;;;;;;;;29.00;20.50;;;;;5.05;100.00;99613.78;5027971;28;11513;-68
2021/12/04 06:55:53;;;;;;;;;23.50;19.75;;;;;5.06;100.00;99608.22;5027480;28;11611;-69
2021/12/04 06:58:22;;;;;;;;;22.75;16.75;;;;;5.06;100.00;99607.38;5024711;28;11521;-70
2021/12/04 07:00:49;;;;;;;;;21.75;15.25;;;;;5.07;100.00;99609.06;5030993;28;11327;-70
2021/12/04 07:03:17;;;;;;;;;18.75;18.50;;;;;5.06;100.00;99605.53;5027647;28;11259;-69
2021/12/04 07:05:44;;;;;;;;;21.25;15.00;;;;;5.06;100.00;99610.91;5025272;28;11590;-69
2021/12/04 07:08:11;;;;;;;;;27.50;19.75;;;;;5.08;100.00;99610.72;5028950;28;11514;-69
2021/12/04 07:10:37;;;;;;;;;31.25;24.75;;;;;5.06;100.00;99607.38;5031692;28;11564;-70
2021/12/04 07:13:05;;;;;;;;;28.50;21.50;;;;;5.05;100.00;99619.13;5040950;28;11547;-69
2021/12/04 07:15:33;;;;;;;;;25.75;21.75;;;;;5.09;100.00;99610.53;5027173;28;11622;-71
2021/12/04 07:18:00;;;;;;;;;16.75;16.50;;;;;5.09;100.00;99601.66;5032657;28;11519;-69
2021/12/04 07:20:28;;;;;;;;;16.00;14.75;;;;;5.07;100.00;99596.47;5029580;28;11637;-69
2021/12/04 07:22:55;;;;;;;;;20.25;16.50;;;;;5.06;100.00;99596.66;5029807;28;11412;-69
2021/12/04 07:25:23;;;;;;;;;19.50;19.00;;;;;5.08;100.00;99600.81;5028781;28;11303;-68
2021/12/04 07:27:50;;;;;;;;;23.75;21.00;;;;;5.08;100.00;99586.56;5033003;28;11515;-68
2021/12/04 07:30:18;;;;;;;;;28.25;23.25;;;;;5.08;100.00;99595.44;5031129;28;11548;-68
2021/12/04 07:32:46;;;;;;;;;22.75;18.50;;;;;5.10;100.00;99595.25;5025193;28;11539;-70
2021/12/04 07:35:13;;;;;;;;;23.75;21.00;;;;;5.10;100.00;99596.09;5026192;28;11624;-68
2021/12/04 07:37:41;;;;;;;;;17.75;15.50;;;;;5.10;100.00;99584.53;5029919;28;11535;-69
2021/12/04 07:40:08;;;;;;;;;27.00;22.00;;;;;5.10;100.00;99581.84;5008908;28;11328;-71
2021/12/04 07:42:35;;;;;;;;;28.75;23.00;;;;;5.12;100.00;99577.13;5029451;28;11167;-69
2021/12/04 07:45:03;;;;;;;;;26.00;21.50;;;;;5.12;100.00;99585.19;5026674;28;11534;-68
2021/12/04 07:47:29;;;;;;;;;36.00;27.50;;;;;5.09;100.00;99583.69;5029295;28;11682;-70
2021/12/04 07:49:56;;;;;;;;;30.25;22.75;;;;;5.13;100.00;99589.53;5029827;28;11500;-68
2021/12/04 07:52:24;;;;;;;;;33.50;27.75;;;;;5.09;100.00;99585.56;5026642;28;11526;-69
2021/12/04 07:54:51;;;;;;;;;36.50;27.50;;;;;5.12;100.00;99587.88;5029078;28;11598;-71
2021/12/04 07:57:17;;;;;;;;;29.50;24.00;;;;;5.10;100.00;99581.84;5027119;28;11542;-71
2021/12/04 07:59:44;;;;;;;;;42.00;30.00;;;;;5.10;100.00;99579.16;5030179;28;11566;-68
2021/12/04 08:02:12;;;;;;;;;31.50;25.25;;;;;5.11;100.00;99572.78;5035162;28;11550;-68
2021/12/04 08:04:39;;;;;;;;;25.00;21.50;;;;;5.07;100.00;99572.34;5028592;28;11551;-70
2021/12/04 08:07:05;;;;;;;;;32.50;27.75;;;;;5.07;100.00;99561.59;5030764;28;12235;-68
2021/12/04 08:09:32;;;;;;;;;27.50;23.75;;;;;5.06;100.00;99541.16;5030924;28;11530;-69
2021/12/04 08:11:58;;;;;;;;;33.75;28.75;;;;;5.07;100.00;99529.41;5032442;28;12776;-69
2021/12/04 08:14:25;;;;;;;;;36.00;27.00;;;;;5.07;100.00;99525.91;5031709;28;11658;-68
2021/12/04 08:16:51;;;;;;;;;28.50;26.50;;;;;5.03;100.00;99536.16;5030712;28;11507;-70
2021/12/04 08:19:19;;;;;;;;;28.75;26.75;;;;;5.08;100.00;99546.34;5030416;28;11645;-67
2021/12/04 08:21:46;;;;;;;;;29.50;27.50;;;;;5.03;100.00;99551.44;5032253;28;11624;-68
2021/12/04 08:24:12;;;;;;;;;32.75;30.75;;;;;5.03;100.00;99546.91;5031033;28;11630;-68
2021/12/04 08:26:40;;;;;;;;;27.50;25.50;;;;;5.02;100.00;99549.78;5032789;28;11591;-69
2021/12/04 08:29:06;;;;;;;;;43.50;29.50;;;;;4.99;100.00;99539.41;5027792;28;12379;-68
2021/12/04 08:31:34;;;;;;;;;28.75;23.25;;;;;5.01;100.00;99535.53;5032677;28;12271;-68
2021/12/04 08:34:00;;;;;;;;;24.00;17.50;;;;;5.03;100.00;99528.13;5032873;28;11553;-68
2021/12/04 08:36:27;;;;;;;;;27.50;23.00;;;;;5.09;100.00;99524.69;5031246;28;11533;-68
2021/12/04 08:38:53;;;;;;;;;26.25;21.75;;;;;5.09;100.00;99534.59;5032600;28;12286;-68
2021/12/04 08:41:20;;;;;;;;;27.75;21.50;;;;;5.09;100.00;99530.06;5034312;28;12304;-69
2021/12/04 08:43:48;;;;;;;;;33.00;27.00;;;;;5.10;100.00;99536.25;5026913;28;12023;-69
2021/12/04 08:46:19;;;;;;;;;33.25;26.00;;;;;5.13;100.00;99543.94;5023938;28;11518;-70
2021/12/04 08:48:51;;;;;;;;;36.75;26.25;;;;;5.14;100.00;99543.75;5032615;28;11275;-69
2021/12/04 08:51:21;;;;;;;;;32.75;28.75;;;;;5.14;100.00;99553.63;5021935;28;11568;-69
2021/12/04 08:53:50;;;;;;;;;26.75;25.00;;;;;5.14;100.00;99550.94;5026438;28;11505;-67
2021/12/04 08:56:16;;;;;;;;;25.75;22.25;;;;;5.13;100.00;99542.06;5030107;28;11672;-67
2021/12/04 08:58:43;;;;;;;;;30.50;24.00;;;;;5.15;100.00;99539.19;5031949;28;11312;-70
2021/12/04 09:01:16;;;;;;;;;30.25;28.50;;;;;5.16;100.00;99532.81;5012294;28;11538;-68
2021/12/04 09:03:47;;;;;;;;;36.25;29.75;;;;;5.17;100.00;99535.31;5011983;28;11547;-69
2021/12/04 09:06:17;;;;;;;;;21.00;17.00;;;;;5.22;100.00;99522.19;5031175;28;11558;-68
2021/12/04 09:08:44;;;;;;;;;38.25;30.50;;;;;5.14;100.00;99524.97;5030948;28;11201;-68
2021/12/04 09:11:18;;;;;;;;;32.75;26.25;;;;;5.23;100.00;99523.03;5029876;28;11578;-68
2021/12/04 09:13:46;;;;;;;;;33.75;25.25;;;;;5.24;100.00;99525.53;5032221;28;11655;-68
2021/12/04 09:16:15;;;;;;;;;26.50;21.25;;;;;5.28;100.00;99525.97;5032036;28;12242;-68
2021/12/04 09:18:41;;;;;;;;;36.25;29.25;;;;;5.25;100.00;99521.81;5030642;28;11510;-69
2021/12/04 09:21:10;;;;;;;;;27.25;21.50;;;;;5.25;100.00;99521.00;5022752;28;12290;-69
2021/12/04 09:23:41;;;;;;;;;24.25;21.50;;;;;5.23;100.00;99521.19;5031190;28;11537;-69
2021/12/04 09:26:13;;;;;;;;;26.00;20.00;;;;;5.21;100.00;99515.16;5030956;28;11509;-70
2021/12/04 09:28:47;;;;;;;;;29.00;19.25;;;;;5.26;100.00;99517.28;5031309;28;11537;-70
2021/12/04 10:01:39;;;;;;;;;30.00;25.75;;;;;5.22;100.00;99506.09;5027022;28;11392;-70
2021/12/04 10:22:23;;;;;;;;;28.25;23.50;;;;;5.25;100.00;99473.53;5019761;28;11500;-69
2021/12/04 10:33:43;;;;;;;;;27.50;20.50;;;;;5.27;100.00;99451.88;5022775;28;11224;-68
2021/12/04 10:36:11;;;;;;;;;15.00;14.25;;;;;7.03;100.00;99436.53;5040412;28;11626;-70
2021/12/04 10:38:43;;;;;;;;;18.50;15.50;;;;;5.84;100.00;99440.25;5026479;28;11189;-69
2021/12/04 10:41:15;;;;;;;;;31.50;21.25;;;;;5.63;100.00;99453.69;5021732;28;11031;-71
2021/12/04 10:43:41;;;;;;;;;24.50;19.50;;;;;5.54;100.00;99442.25;5012965;28;11550;-69
2021/12/04 10:46:15;;;;;;;;;23.50;18.00;;;;;5.53;100.00;99440.59;5028559;28;11514;-69
2021/12/04 10:48:51;;;;;;;;;27.75;20.00;;;;;5.47;100.00;99434.13;5030461;28;11188;-69
2021/12/04 10:53:49;;;;;;;;;14.00;13.75;;;;;5.48;100.00;99432.28;5022154;28;11039;-69
2021/12/04 10:59:24;;;;;;;;;17.75;17.75;;;;;5.51;100.00;99430.03;5015691;28;11161;-69
2021/12/04 11:02:00;;;;;;;;;12.75;12.50;;;;;6.47;100.00;99425.06;5010094;28;11235;-69
2021/12/04 11:04:50;;;;;;;;;20.50;15.75;;;;;5.74;100.00;99432.53;5022263;28;11089;-69
2021/12/04 11:18:46;;;;;;;;;23.00;22.75;;;;;5.50;100.00;99420.34;5022175;28;11608;-69
2021/12/04 11:38:23;;;;;;;;;23.00;18.00;;;;;5.35;100.00;99397.25;5023032;28;11511;-69
2021/12/04 11:43:51;;;;;;;;;24.50;19.50;;;;;5.29;100.00;99388.13;5012717;28;11526;-69
2021/12/04 11:46:25;;;;;;;;;26.50;20.50;;;;;5.28;100.00;99385.63;5015970;28;11512;-70
2021/12/04 11:48:52;;;;;;;;;19.25;16.25;;;;;5.72;100.00;99388.13;5020441;28;11644;-69
2021/12/04 11:51:24;;;;;;;;;22.75;18.50;;;;;5.45;100.00;99387.88;5029383;28;12290;-69
2021/12/04 11:53:52;;;;;;;;;31.75;24.75;;;;;5.33;100.00;99372.47;5011704;28;11529;-69
2021/12/04 11:56:25;;;;;;;;;23.25;17.25;;;;;5.31;100.00;99364.59;5029208;28;12276;-68
2021/12/04 11:58:52;;;;;;;;;14.00;12.25;;;;;5.34;100.00;99368.75;5027790;28;11161;-70
2021/12/04 12:01:31;;;;;;;;;21.00;17.25;;;;;5.33;100.00;99369.78;5010638;28;11514;-69
2021/12/04 12:04:05;;;;;;;;;23.25;23.25;;;;;5.30;100.00;99360.25;5025116;28;11233;-69
2021/12/04 12:06:41;;;;;;;;;30.25;16.75;;;;;5.29;100.00;99352.41;5029433;28;11282;-68
2021/12/04 12:09:19;;;;;;;;;25.50;20.00;;;;;5.45;100.00;99362.84;5027767;28;11127;-71
2021/12/04 12:12:00;;;;;;;;;23.25;18.25;;;;;5.67;100.00;99358.31;5028568;28;11321;-68
2021/12/04 12:14:40;;;;;;;;;25.00;17.25;;;;;5.51;100.00;99359.44;5028605;28;11515;-68
2021/12/04 12:17:08;;;;;;;;;23.25;19.25;;;;;5.44;100.00;99355.81;5023542;28;11384;-69
2021/12/04 12:19:43;;;;;;;;;30.25;24.75;;;;;5.38;100.00;99354.75;5024192;28;11268;-68
2021/12/04 12:22:39;;;;;;;;;30.50;22.75;;;;;5.38;100.00;99345.88;5009405;28;12442;-69
2021/12/04 12:25:33;;;;;;;;;26.50;24.00;;;;;5.38;100.00;99344.03;5008499;28;11518;-69
2021/12/04 12:34:06;;;;;;;;;15.50;15.00;;;;;5.34;100.00;99340.06;5010852;28;11211;-69
2021/12/04 12:36:33;;;;;;;;;25.75;21.00;;;;;5.37;100.00;99333.47;5024576;28;11191;-69
2021/12/04 12:39:08;;;;;;;;;26.75;21.00;;;;;5.38;100.00;99337.81;5026166;28;11902;-68
2021/12/04 12:41:38;;;;;;;;;23.25;20.00;;;;;5.41;100.00;99335.56;5017005;28;11419;-69
2021/12/04 12:44:17;;;;;;;;;28.25;20.75;;;;;5.44;100.00;99324.44;5009322;28;11502;-68
2021/12/04 12:46:53;;;;;;;;;23.50;18.25;;;;;5.48;100.00;99324.94;5018846;28;11382;-68
2021/12/04 12:49:36;;;;;;;;;29.00;21.75;;;;;5.57;100.00;99318.38;5030424;28;12291;-68
2021/12/04 12:52:09;;;;;;;;;28.50;23.50;;;;;5.49;100.00;99319.38;5031149;28;11524;-68
2021/12/04 12:54:44;;;;;;;;;24.50;20.25;;;;;5.50;100.00;99317.50;5031842;28;11597;-68
2021/12/04 12:57:23;;;;;;;;;23.75;21.00;;;;;5.50;100.00;99312.97;5031828;28;11617;-68
2021/12/04 13:14:24;;;;;;;;;32.75;28.50;;;;;5.48;100.00;99325.75;5030818;28;12260;-69
2021/12/04 13:17:07;;;;;;;;;37.50;26.25;;;;;5.43;100.00;99322.78;5018382;28;11539;-68
2021/12/04 13:19:37;;;;;;;;;33.75;22.50;;;;;5.45;100.00;99323.47;5016199;28;11517;-68
2021/12/04 13:22:11;;;;;;;;;36.75;26.00;;;;;5.47;100.00;99317.91;5029765;28;12248;-68
2021/12/04 13:24:41;;;;;;;;;29.25;20.75;;;;;5.47;100.00;99315.22;5030431;28;11499;-68
2021/12/04 13:29:45;;;;;;;;;32.50;27.00;;;;;5.48;100.00;99316.88;5029519;28;11561;-68
2021/12/04 13:32:16;;;;;;;;;36.25;25.75;;;;;5.50;100.00;99310.28;5022843;28;11995;-68
2021/12/04 13:34:44;;;;;;;;;29.25;21.25;;;;;5.49;100.00;99314.00;5030843;28;11526;-70
2021/12/04 13:37:12;;;;;;;;;33.50;22.00;;;;;5.52;100.00;99310.91;5027328;28;11428;-68
2021/12/04 13:39:43;;;;;;;;;28.25;23.50;;;;;5.51;100.00;99303.06;5026864;28;11890;-69
2021/12/04 13:42:10;;;;;;;;;36.25;28.25;;;;;5.53;100.00;99311.75;5025578;28;11646;-69
2021/12/04 13:44:38;;;;;;;;;29.00;28.00;;;;;5.52;100.00;99313.59;5021835;28;11590;-68
2021/12/04 13:47:07;;;;;;;;;40.75;26.75;;;;;5.53;100.00;99307.22;5019075;28;11510;-68
2021/12/04 13:49:40;;;;;;;;;33.25;23.75;;;;;5.59;100.00;99316.34;5023798;28;11534;-68
2021/12/04 13:52:11;;;;;;;;;27.75;25.00;;;;;5.60;100.00;99306.41;5019275;28;11546;-68
2021/12/04 13:54:55;;;;;;;;;25.00;19.50;;;;;7.00;100.00;99307.78;5015813;28;11532;-68
2021/12/04 13:57:22;;;;;;;;;21.50;17.00;;;;;6.24;100.00;99301.72;5018715;28;11314;-68
2021/12/04 13:59:48;;;;;;;;;26.25;18.00;;;;;6.02;100.00;99300.16;5024670;28;11237;-68
2021/12/04 14:02:24;;;;;;;;;24.00;20.50;;;;;5.92;100.00;99307.72;5015125;28;11155;-68
2021/12/04 14:05:14;;;;;;;;;25.00;16.75;;;;;5.85;100.00;99311.16;5027563;28;11161;-69
2021/12/04 14:07:49;;;;;;;;;20.50;18.75;;;;;5.99;100.00;99306.75;5029459;28;11268;-68
2021/12/04 14:10:34;;;;;;;;;22.25;20.00;;;;;5.87;100.00;99301.03;5025444;28;11118;-68
2021/12/04 14:13:03;;;;;;;;;18.50;17.50;;;;;5.83;100.00;99307.84;5030446;28;11273;-68
2021/12/04 14:15:31;;;;;;;;;25.00;20.75;;;;;5.82;100.00;99302.66;5039391;28;11197;-69
2021/12/04 14:18:01;;;;;;;;;20.00;19.00;;;;;5.81;100.00;99303.69;5021632;28;12244;-68
2021/12/04 14:20:30;;;;;;;;;18.00;14.25;;;;;5.81;100.00;99306.38;5024039;28;11372;-69
2021/12/04 14:22:58;;;;;;;;;21.00;17.00;;;;;5.80;100.00;99302.88;5020973;28;11104;-68
2021/12/04 14:25:26;;;;;;;;;19.25;12.00;;;;;5.78;100.00;99312.97;5029919;28;11293;-68
2021/12/04 14:27:58;;;;;;;;;17.50;14.50;;;;;5.77;100.00;99311.31;5029884;28;11591;-69
2021/12/04 14:30:31;;;;;;;;;13.25;12.00;;;;;5.82;100.00;99324.16;5030612;28;11096;-69
2021/12/04 14:33:01;;;;;;;;;17.50;14.25;;;;;5.72;100.00;99316.44;5029735;28;10947;-67
2021/12/04 14:35:41;;;;;;;;;14.25;9.75;;;;;5.62;100.00;99325.84;5029619;28;11091;-67
2021/12/04 14:38:11;;;;;;;;;10.75;9.00;;;;;5.63;100.00;99331.03;5029470;28;11010;-68
2021/12/04 14:40:42;;;;;;;;;18.25;14.50;;;;;5.67;100.00;99318.88;5028534;28;11017;-68
2021/12/04 14:43:15;;;;;;;;;17.50;13.50;;;;;5.68;100.00;99322.38;5022792;28;10839;-68
2021/12/04 14:45:46;;;;;;;;;9.00;8.00;;;;;5.72;100.00;99327.19;5029774;28;10937;-67
2021/12/04 14:48:20;;;;;;;;;10.00;9.25;;;;;5.72;100.00;99329.88;5038182;28;10663;-68
2021/12/04 14:50:52;;;;;;;;;8.25;8.25;;;;;5.55;100.00;99325.81;5024786;28;10932;-67